createdAt,value
2024-03-26T00:00:42.256Z,32.27
2024-03-26T00:01:42.274Z,32.46
2024-03-26T00:02:42.219Z,32.63
2024-03-26T00:03:42.178Z,32.58
2024-03-26T00:04:42.191Z,32.48
2024-03-26T00:05:42.213Z,32.21
2024-03-26T00:06:42.273Z,32.45
2024-03-26T00:07:42.203Z,32.41
2024-03-26T00:08:42.233Z,32.50
2024-03-26T00:09:42.219Z,32.58
2024-03-26T00:10:42.253Z,32.57
2024-03-26T00:11:42.284Z,32.19
2024-03-26T00:12:42.232Z,32.17
2024-03-26T00:13:42.277Z,32.29
2024-03-26T00:14:42.296Z,32.42
2024-03-26T00:15:42.196Z,32.65
2024-03-26T00:16:42.299Z,32.64
2024-03-26T00:17:42.248Z,32.67
2024-03-26T00:18:42.226Z,32.58
2024-03-26T00:19:42.319Z,32.60
2024-03-26T00:20:42.276Z,32.89
2024-03-26T00:21:42.460Z,32.69
2024-03-26T00:22:42.290Z,32.82
2024-03-26T00:23:42.328Z,32.69
2024-03-26T00:24:42.261Z,34.33
2024-03-26T00:25:42.296Z,33.28
2024-03-26T00:26:42.363Z,33.22
2024-03-26T00:27:42.577Z,32.91
2024-03-26T00:28:44.012Z,33.13
2024-03-26T00:29:42.424Z,33.32
2024-03-26T00:30:42.392Z,33.22
2024-03-26T00:31:42.310Z,33.53
2024-03-26T00:32:42.302Z,33.23
2024-03-26T00:33:42.312Z,34.44
2024-03-26T00:34:42.405Z,33.51
2024-03-26T00:35:42.410Z,34.00
2024-03-26T00:36:42.410Z,34.32
2024-03-26T00:37:42.315Z,38.02
2024-03-26T00:38:42.307Z,39.40
2024-03-26T00:39:42.325Z,37.25
2024-03-26T00:40:42.362Z,34.07
2024-03-26T00:41:42.372Z,33.88
2024-03-26T00:42:42.371Z,34.36
2024-03-26T00:43:42.287Z,35.85
2024-03-26T00:44:42.344Z,35.47
2024-03-26T00:45:42.338Z,35.77
2024-03-26T00:46:42.374Z,38.48
2024-03-26T00:47:42.537Z,38.65
2024-03-26T00:48:42.487Z,40.08
2024-03-26T00:49:42.433Z,39.66
2024-03-26T00:50:42.524Z,38.59
2024-03-26T00:51:42.511Z,38.02
2024-03-26T00:52:42.614Z,40.55
2024-03-26T00:53:44.501Z,40.25
2024-03-26T00:54:42.676Z,39.98
2024-03-26T00:55:42.682Z,41.40
2024-03-26T00:56:42.809Z,43.37
2024-03-26T00:57:42.873Z,44.82
2024-03-26T00:58:42.860Z,41.98
2024-03-26T00:59:42.914Z,41.88
2024-03-26T01:00:42.956Z,40.05
2024-03-26T09:39:52.056Z,25.16
2024-03-26T09:40:52.082Z,25.20
2024-03-26T09:41:52.039Z,25.09
2024-03-26T09:42:52.073Z,25.71
2024-03-26T09:43:52.002Z,25.17
2024-03-26T09:44:58.537Z,25.43
2024-03-26T09:45:53.015Z,25.54
2024-03-26T09:46:52.045Z,25.79
2024-03-26T09:47:52.025Z,25.21
2024-03-26T09:48:52.009Z,25.12
2024-03-26T09:49:52.012Z,25.32
2024-03-26T09:50:52.034Z,25.26
2024-03-26T09:51:52.129Z,25.74
2024-03-26T09:52:52.048Z,25.32
2024-03-26T09:53:52.039Z,25.66
2024-03-26T09:54:52.037Z,25.53
2024-03-26T09:55:52.048Z,26.34
2024-03-26T09:56:52.215Z,25.89
2024-03-26T09:57:52.288Z,25.26
2024-03-26T09:58:52.203Z,24.74
2024-03-26T09:59:52.506Z,25.06
2024-03-26T10:00:52.216Z,25.60
2024-03-26T10:01:52.175Z,26.05
2024-03-26T10:02:52.206Z,25.83
2024-03-26T10:03:52.292Z,25.87
2024-03-26T10:04:52.305Z,26.12
2024-03-26T10:05:52.386Z,26.59
2024-03-26T10:06:52.416Z,26.26
2024-03-26T10:07:52.436Z,26.60
2024-03-26T10:08:52.469Z,26.24
2024-03-26T10:09:52.553Z,26.20
2024-03-26T10:10:52.519Z,26.34
2024-03-26T10:11:52.578Z,25.87
2024-03-26T10:12:52.572Z,26.01
2024-03-26T10:13:52.642Z,25.65
2024-03-26T10:14:52.691Z,25.56
2024-03-26T10:15:52.688Z,25.62
2024-03-26T10:16:52.767Z,26.75
2024-03-26T10:17:52.748Z,26.68
2024-03-26T10:18:52.848Z,26.62
2024-03-26T10:19:52.790Z,26.72
2024-03-26T10:20:52.901Z,27.01
2024-03-26T10:21:53.368Z,27.12
2024-03-26T10:22:52.909Z,26.70
2024-03-26T10:23:52.964Z,26.71
2024-03-26T10:24:53.021Z,26.14
2024-03-26T10:25:53.047Z,26.59
2024-03-26T10:26:53.111Z,26.83
2024-03-26T10:27:53.122Z,26.64
2024-03-26T10:28:53.153Z,26.53
2024-03-26T10:29:53.172Z,25.97
